createdAt,value
2022-12-23T00:01:22.602Z,76.12
2022-12-23T00:03:49.261Z,76.23
2022-12-23T00:06:18.062Z,76.26
2022-12-23T00:08:45.840Z,76.28
2022-12-23T00:11:16.756Z,77.12
2022-12-23T00:13:57.607Z,76.65
2022-12-23T00:16:24.167Z,76.42
2022-12-23T00:18:53.496Z,76.28
2022-12-23T00:21:21.285Z,76.38
2022-12-23T00:23:49.755Z,76.66
2022-12-23T00:26:22.230Z,76.52
2022-12-23T00:28:49.321Z,76.67
2022-12-23T00:31:18.167Z,76.37
2022-12-23T00:33:47.582Z,76.47
2022-12-23T00:36:18.894Z,76.33
2022-12-23T00:38:59.256Z,76.43
2022-12-23T00:41:39.267Z,76.20
2022-12-23T00:44:05.861Z,76.37
2022-12-23T00:46:32.526Z,76.30
2022-12-23T00:49:09.837Z,76.49
2022-12-23T00:51:36.520Z,76.45
2022-12-23T00:54:03.892Z,76.55
2022-12-23T00:56:31.411Z,76.41
2022-12-23T00:58:58.717Z,76.32
2022-12-23T01:01:40.688Z,76.80
2022-12-23T01:04:30.699Z,76.91
2022-12-23T01:06:57.375Z,77.08
2022-12-23T01:09:23.934Z,77.36
2022-12-23T01:11:50.853Z,78.21
2022-12-23T01:14:17.658Z,78.21
2022-12-23T01:16:47.181Z,77.82
2022-12-23T01:19:14.356Z,77.53
2022-12-23T01:21:41.251Z,77.52
2022-12-23T01:24:08.241Z,77.41
2022-12-23T01:26:35.014Z,77.32
2022-12-23T01:29:01.950Z,77.33
2022-12-23T01:31:28.938Z,77.22
2022-12-23T01:33:55.847Z,76.86
2022-12-23T01:36:22.879Z,76.84
2022-12-23T01:38:49.838Z,76.75
2022-12-23T01:41:43.040Z,76.96
2022-12-23T01:44:43.203Z,76.91
2022-12-23T01:47:14.157Z,76.97
2022-12-23T01:49:41.948Z,76.81
2022-12-23T01:52:10.479Z,76.63
2022-12-23T01:54:38.489Z,76.51
2022-12-23T01:57:05.357Z,76.42
2022-12-23T01:59:44.007Z,76.40
2022-12-23T02:02:24.316Z,76.45
2022-12-23T02:04:51.850Z,76.53
2022-12-23T02:07:34.406Z,77.20
2022-12-23T02:10:01.825Z,76.88
2022-12-23T02:12:41.922Z,77.33
2022-12-23T02:16:04.939Z,76.92
2022-12-23T02:18:49.684Z,76.94
2022-12-23T02:21:30.161Z,76.97
2022-12-23T02:24:25.022Z,77.44
2022-12-23T02:27:04.313Z,78.67
2022-12-23T02:30:03.543Z,79.50
2022-12-23T02:32:54.887Z,78.88
2022-12-23T02:35:43.334Z,78.34
2022-12-23T02:38:16.647Z,78.15
2022-12-23T02:41:06.371Z,77.92
2022-12-23T02:43:50.873Z,78.18
2022-12-23T02:46:41.049Z,78.22
2022-12-23T02:49:12.654Z,79.39
2022-12-23T02:51:46.677Z,79.03
2022-12-23T02:54:17.658Z,78.68
2022-12-23T02:56:49.551Z,80.06
2022-12-23T02:59:24.385Z,79.16
2022-12-23T03:01:55.358Z,78.95
2022-12-23T03:04:21.897Z,79.05
2022-12-23T03:06:52.520Z,79.23
2022-12-23T03:09:30.804Z,79.21
2022-12-23T03:12:10.626Z,79.58
2022-12-23T03:14:51.932Z,79.52
2022-12-23T03:17:38.919Z,80.31
2022-12-23T03:20:20.402Z,79.93
2022-12-23T03:23:03.058Z,79.81
2022-12-23T03:25:46.437Z,79.61
2022-12-23T03:28:30.538Z,79.75
2022-12-23T03:30:59.190Z,79.91
2022-12-23T03:33:31.089Z,79.72
2022-12-23T03:36:06.333Z,79.85
2022-12-23T03:38:38.099Z,79.74
2022-12-23T03:41:09.373Z,80.76
2022-12-23T03:43:46.743Z,79.83
2022-12-23T03:46:26.734Z,79.68
2022-12-23T03:48:57.533Z,79.79
2022-12-23T03:51:33.342Z,79.76
2022-12-23T03:54:04.819Z,79.76
2022-12-23T03:56:36.068Z,79.98
2022-12-23T03:59:12.128Z,80.38
2022-12-23T04:02:03.437Z,79.96
2022-12-23T04:04:48.877Z,79.80
2022-12-23T04:07:23.176Z,80.02
2022-12-23T04:09:52.818Z,79.97
2022-12-23T04:12:23.176Z,79.81
2022-12-23T04:14:50.333Z,79.79
2022-12-23T04:17:18.047Z,80.09
2022-12-23T04:19:45.465Z,80.02
2022-12-23T04:22:12.760Z,80.14
2022-12-23T04:24:39.468Z,81.18
2022-12-23T04:27:07.608Z,81.93
2022-12-23T04:29:34.154Z,81.28
2022-12-23T04:32:00.664Z,81.67
2022-12-23T04:34:27.163Z,81.29
2022-12-23T04:36:53.760Z,81.34
2022-12-23T04:39:20.292Z,81.33
2022-12-23T04:41:47.223Z,81.76
2022-12-23T04:44:13.728Z,81.35
2022-12-23T04:46:40.716Z,81.12
2022-12-23T04:49:07.559Z,81.17
2022-12-23T04:51:34.267Z,81.04
2022-12-23T04:54:00.858Z,80.72
2022-12-23T04:56:27.416Z,80.60
2022-12-23T04:58:53.882Z,80.51
2022-12-23T05:01:20.544Z,80.48
2022-12-23T05:03:47.104Z,80.19
2022-12-23T05:06:13.559Z,79.87
2022-12-23T05:08:40.072Z,80.18
2022-12-23T05:11:08.350Z,80.04
2022-12-23T05:13:34.818Z,79.91
2022-12-23T05:16:01.893Z,79.63
2022-12-23T05:18:28.443Z,79.47
2022-12-23T05:20:54.917Z,79.34
2022-12-23T05:23:21.509Z,79.18
2022-12-23T05:25:52.802Z,79.05
2022-12-23T05:28:20.796Z,79.70
2022-12-23T05:30:47.373Z,80.26
2022-12-23T05:33:14.617Z,80.57
2022-12-23T05:35:41.130Z,80.17
2022-12-23T05:38:07.741Z,80.32
2022-12-23T05:40:34.288Z,80.65
2022-12-23T05:43:00.944Z,80.54
2022-12-23T05:45:27.513Z,81.17
2022-12-23T05:47:54.147Z,81.42
2022-12-23T05:50:20.624Z,82.66
2022-12-23T05:52:48.580Z,84.15
2022-12-23T05:55:16.087Z,83.06
2022-12-23T05:57:42.547Z,82.46
2022-12-23T06:00:09.681Z,82.59
2022-12-23T06:02:39.866Z,82.99
2022-12-23T06:05:07.427Z,82.88
2022-12-23T06:07:34.450Z,83.08
2022-12-23T06:10:00.959Z,82.16
2022-12-23T06:12:27.729Z,82.33
2022-12-23T06:14:54.293Z,82.15
2022-12-23T06:17:21.035Z,82.36
2022-12-23T06:19:47.661Z,81.94
2022-12-23T06:22:15.340Z,81.79
2022-12-23T06:24:41.805Z,81.72
2022-12-23T06:27:08.495Z,81.91
2022-12-23T06:29:36.154Z,81.52
2022-12-23T06:32:03.113Z,80.73
2022-12-23T06:34:30.652Z,80.38
2022-12-23T06:36:57.445Z,80.56
2022-12-23T06:39:24.297Z,80.62
2022-12-23T06:41:50.724Z,80.60
2022-12-23T06:44:17.495Z,80.40
2022-12-23T06:46:44.138Z,80.26
2022-12-23T06:49:13.463Z,80.53
2022-12-23T06:51:40.768Z,80.43
2022-12-23T06:54:11.052Z,80.54
2022-12-23T06:56:38.102Z,81.11
2022-12-23T06:59:04.810Z,80.68
2022-12-23T07:01:31.580Z,80.59
2022-12-23T07:03:58.099Z,80.51
2022-12-23T07:06:24.734Z,80.27
2022-12-23T07:08:51.188Z,80.33
2022-12-23T07:11:17.875Z,80.39
2022-12-23T07:13:46.344Z,80.12
2022-12-23T07:16:13.137Z,80.14
2022-12-23T07:18:39.950Z,80.33
2022-12-23T07:21:10.591Z,80.29
2022-12-23T07:23:44.390Z,80.73
2022-12-23T07:26:10.860Z,80.58
2022-12-23T07:28:37.627Z,80.99
2022-12-23T07:31:06.350Z,81.27
2022-12-23T07:33:32.895Z,81.39
2022-12-23T07:35:59.942Z,82.39
2022-12-23T07:38:26.490Z,83.72
2022-12-23T07:40:52.982Z,84.19
2022-12-23T07:43:19.460Z,84.73
2022-12-23T07:45:45.975Z,84.77
2022-12-23T07:48:12.754Z,84.35
2022-12-23T07:50:39.225Z,84.05
2022-12-23T07:53:05.610Z,83.41
2022-12-23T07:55:32.154Z,83.09
2022-12-23T07:57:58.726Z,83.04
2022-12-23T08:00:28.467Z,82.76
2022-12-23T08:02:55.217Z,82.89
2022-12-23T08:05:22.087Z,82.78
2022-12-23T08:07:49.321Z,82.45
2022-12-23T08:10:16.104Z,82.25
2022-12-23T08:12:42.656Z,81.85
2022-12-23T08:15:10.587Z,81.13
2022-12-23T08:17:37.083Z,80.98
2022-12-23T08:20:03.975Z,80.20
2022-12-23T08:22:31.752Z,79.87
2022-12-23T08:24:59.082Z,79.58
2022-12-23T08:27:25.987Z,78.72
2022-12-23T08:29:52.475Z,78.25
2022-12-23T08:32:19.223Z,78.36
2022-12-23T08:34:45.814Z,77.90
2022-12-23T08:37:12.365Z,77.96
2022-12-23T08:39:38.875Z,78.00
2022-12-23T08:42:05.351Z,78.34
2022-12-23T08:44:31.871Z,78.61
2022-12-23T08:46:58.566Z,78.56
2022-12-23T08:49:25.045Z,78.74
2022-12-23T08:51:51.871Z,78.48
2022-12-23T08:54:19.680Z,78.17
2022-12-23T08:56:46.335Z,78.20
2022-12-23T08:59:19.304Z,78.17
2022-12-23T09:01:47.609Z,77.77
2022-12-23T09:04:14.307Z,77.16
2022-12-23T09:06:42.011Z,76.91
2022-12-23T09:09:11.187Z,76.55
2022-12-23T09:11:38.319Z,74.15
2022-12-23T09:14:06.238Z,74.39
2022-12-23T09:16:33.054Z,73.24
2022-12-23T09:18:59.989Z,74.32
2022-12-23T09:21:26.668Z,74.61
2022-12-23T09:23:53.308Z,74.55
2022-12-23T09:26:23.809Z,73.38
2022-12-23T09:28:51.190Z,72.25
2022-12-23T09:31:18.756Z,71.66
2022-12-23T09:33:48.371Z,71.59
2022-12-23T09:36:15.124Z,71.86
2022-12-23T09:38:42.096Z,72.13
2022-12-23T09:41:33.311Z,72.46
2022-12-23T09:44:23.029Z,72.72
2022-12-23T09:46:56.103Z,72.44
2022-12-23T09:49:23.794Z,72.74
2022-12-23T09:51:56.528Z,71.57
2022-12-23T09:54:28.302Z,71.27
2022-12-23T09:57:35.561Z,71.17
2022-12-23T10:00:16.693Z,69.30
2022-12-23T10:03:04.142Z,69.80
2022-12-23T10:05:47.179Z,70.54
2022-12-23T10:08:25.651Z,70.25
2022-12-23T10:11:04.578Z,68.98
2022-12-23T10:13:37.005Z,68.44
2022-12-23T10:16:10.872Z,68.14
2022-12-23T10:18:48.332Z,69.03
2022-12-23T10:21:25.829Z,68.63
2022-12-23T10:23:54.203Z,68.83
2022-12-23T10:26:29.292Z,68.38
2022-12-23T10:29:05.011Z,68.23
2022-12-23T10:31:50.332Z,68.82
2022-12-23T10:34:33.458Z,68.60
2022-12-23T10:37:26.365Z,69.25
2022-12-23T10:40:11.088Z,68.95
2022-12-23T10:42:59.763Z,68.89
2022-12-23T10:45:42.297Z,68.64
2022-12-23T10:48:38.541Z,68.55
2022-12-23T10:51:24.558Z,68.74
2022-12-23T10:53:56.247Z,69.72
2022-12-23T10:56:22.805Z,69.75
2022-12-23T10:58:54.389Z,69.98
2022-12-23T11:01:26.504Z,70.36
2022-12-23T11:04:05.826Z,70.99
2022-12-23T11:06:38.006Z,71.30
2022-12-23T11:09:06.333Z,71.35
2022-12-23T11:11:54.123Z,71.28
2022-12-23T11:14:40.882Z,71.37
2022-12-23T11:17:20.565Z,71.41
2022-12-23T11:19:48.307Z,71.76
2022-12-23T11:22:24.477Z,71.72
2022-12-23T11:24:51.163Z,71.72
2022-12-23T11:27:18.789Z,71.35
2022-12-23T11:29:49.757Z,71.69
2022-12-23T11:32:23.838Z,71.54
2022-12-23T11:34:51.063Z,71.61
2022-12-23T11:37:34.342Z,71.43
2022-12-23T11:40:01.127Z,72.04
2022-12-23T11:42:29.832Z,71.94
2022-12-23T11:44:59.563Z,71.85
2022-12-23T11:47:32.363Z,71.49
2022-12-23T11:50:04.553Z,71.79
2022-12-23T11:52:33.072Z,71.68
2022-12-23T11:55:03.251Z,71.98
2022-12-23T11:57:40.064Z,72.07
2022-12-23T12:00:18.248Z,72.04
2022-12-23T12:02:48.514Z,71.80
2022-12-23T12:05:24.605Z,70.62
2022-12-23T12:07:51.647Z,70.93
2022-12-23T12:10:28.161Z,71.14
2022-12-23T12:12:59.027Z,71.22
2022-12-23T12:15:40.246Z,71.45
2022-12-23T12:18:12.729Z,71.96
2022-12-23T12:20:44.957Z,72.35
2022-12-23T12:23:20.660Z,72.22
2022-12-23T12:25:52.975Z,72.18
2022-12-23T12:28:29.331Z,71.91
2022-12-23T12:31:05.254Z,72.30
2022-12-23T12:33:53.749Z,71.98
2022-12-23T12:36:48.054Z,72.05
2022-12-23T12:39:22.790Z,72.52
2022-12-23T12:41:58.425Z,72.16
2022-12-23T12:44:38.615Z,72.14
2022-12-23T12:47:36.114Z,72.26
2022-12-23T12:50:05.919Z,71.97
2022-12-23T12:52:39.863Z,72.25
2022-12-23T12:55:20.848Z,72.37
2022-12-23T12:57:47.353Z,72.42
2022-12-23T13:00:18.470Z,72.50
2022-12-23T13:03:20.799Z,72.64
2022-12-23T13:05:59.831Z,73.11
2022-12-23T13:09:02.035Z,73.38
2022-12-23T13:11:45.804Z,73.01
2022-12-23T13:14:29.191Z,73.17
2022-12-23T13:17:08.516Z,73.01
2022-12-23T13:19:50.366Z,73.23
2022-12-23T13:22:24.521Z,73.45
2022-12-23T13:25:23.549Z,73.20
2022-12-23T13:27:57.465Z,73.62
2022-12-23T13:30:31.257Z,74.15
2022-12-23T13:33:30.653Z,74.43
2022-12-23T13:36:16.145Z,74.15
2022-12-23T13:39:00.940Z,74.11
2022-12-23T13:41:43.829Z,75.57
2022-12-23T13:44:12.814Z,75.69
2022-12-23T13:47:04.059Z,74.81
2022-12-23T13:49:57.190Z,75.20
2022-12-23T13:52:43.158Z,74.92
2022-12-23T13:55:35.306Z,74.80
2022-12-23T13:58:12.789Z,75.77
2022-12-23T14:00:39.367Z,75.70
2022-12-23T14:03:19.084Z,76.06
2022-12-23T14:05:49.740Z,75.73
2022-12-23T14:08:25.291Z,75.79
2022-12-23T14:11:10.086Z,76.05
2022-12-23T14:13:54.545Z,75.63
2022-12-23T14:16:38.488Z,75.73
2022-12-23T14:19:23.830Z,75.80
2022-12-23T14:22:23.569Z,75.63
2022-12-23T14:25:13.800Z,75.81
2022-12-23T14:27:53.890Z,75.95
2022-12-23T14:30:34.164Z,75.40
2022-12-23T14:33:23.218Z,75.59
2022-12-23T14:36:04.515Z,76.14
2022-12-23T14:38:33.697Z,76.83
2022-12-23T14:41:22.271Z,77.12
2022-12-23T14:43:55.005Z,76.81
2022-12-23T14:47:01.390Z,76.69
2022-12-23T14:49:40.633Z,76.72
2022-12-23T14:52:46.521Z,77.31
2022-12-23T14:55:45.873Z,77.35
2022-12-23T14:58:29.030Z,77.14
2022-12-23T15:01:01.743Z,77.22
2022-12-23T15:03:34.361Z,77.10
2022-12-23T15:06:05.596Z,77.13
2022-12-23T15:08:38.864Z,77.30
2022-12-23T15:11:08.670Z,77.29
2022-12-23T15:13:36.606Z,80.73
2022-12-23T15:16:03.870Z,85.73
2022-12-23T15:18:30.497Z,85.79
2022-12-23T15:20:58.584Z,83.81
2022-12-23T15:23:25.189Z,82.69
2022-12-23T15:25:57.023Z,82.06
2022-12-23T15:28:35.547Z,81.81
2022-12-23T15:31:02.510Z,82.53
2022-12-23T15:34:02.247Z,82.17
2022-12-23T15:36:29.950Z,81.91
2022-12-23T15:38:59.269Z,81.92
2022-12-23T15:41:25.867Z,82.54
2022-12-23T15:43:56.895Z,82.70
2022-12-23T15:46:29.831Z,82.63
2022-12-23T15:48:57.552Z,84.67
2022-12-23T15:52:07.193Z,83.44
2022-12-23T15:54:29.255Z,83.02
2022-12-23T15:56:58.323Z,82.92
2022-12-23T15:59:31.714Z,83.19
2022-12-23T16:02:32.156Z,83.00
2022-12-23T16:04:56.157Z,84.21
2022-12-23T16:07:31.381Z,84.33
2022-12-23T16:10:04.470Z,83.75
2022-12-23T16:12:34.048Z,83.36
2022-12-23T16:15:00.510Z,82.94
2022-12-23T16:17:33.109Z,83.06
2022-12-23T16:20:19.179Z,82.89
2022-12-23T16:22:49.784Z,82.97
2022-12-23T16:25:30.470Z,83.66
2022-12-23T16:28:03.102Z,83.48
2022-12-23T16:30:36.418Z,83.35
2022-12-23T16:33:06.506Z,83.14
2022-12-23T16:35:38.427Z,83.94
2022-12-23T16:38:23.616Z,83.89
2022-12-23T16:40:57.485Z,83.51
2022-12-23T16:43:24.796Z,83.50
2022-12-23T16:45:56.060Z,83.99
2022-12-23T16:48:35.067Z,85.76
2022-12-23T16:51:05.597Z,86.45
2022-12-23T16:53:32.358Z,85.72
2022-12-23T16:56:01.082Z,85.47
2022-12-23T16:58:29.053Z,85.82
2022-12-23T17:00:56.376Z,85.50
2022-12-23T17:03:23.372Z,86.31
2022-12-23T17:05:50.120Z,86.83
2022-12-23T17:08:17.012Z,87.50
2022-12-23T17:10:44.662Z,87.06
2022-12-23T17:13:13.424Z,86.31
2022-12-23T17:15:40.061Z,86.00
2022-12-23T17:18:12.805Z,85.96
2022-12-23T17:20:41.527Z,85.45
2022-12-23T17:23:23.516Z,85.28
2022-12-23T17:25:50.215Z,85.37
2022-12-23T17:28:17.001Z,85.08
2022-12-23T17:30:43.789Z,84.87
2022-12-23T17:33:17.282Z,85.42
2022-12-23T17:35:43.942Z,85.60
2022-12-23T17:38:15.340Z,86.15
2022-12-23T17:40:44.730Z,85.93
2022-12-23T17:43:13.582Z,86.02
2022-12-23T17:45:42.898Z,86.91
2022-12-23T17:48:17.954Z,87.21
2022-12-23T17:50:48.476Z,87.40
2022-12-23T17:53:18.975Z,87.42
2022-12-23T17:55:45.864Z,87.27
2022-12-23T17:58:13.421Z,87.73
2022-12-23T18:00:40.535Z,86.84
2022-12-23T18:03:21.271Z,86.48
2022-12-23T18:05:48.075Z,86.19
2022-12-23T18:08:16.269Z,86.23
2022-12-23T18:10:43.866Z,86.09
2022-12-23T18:13:16.729Z,86.05
2022-12-23T18:15:44.963Z,85.96
2022-12-23T18:18:22.217Z,86.51
2022-12-23T18:20:56.411Z,86.28
2022-12-23T18:23:26.089Z,86.06
2022-12-23T18:25:53.853Z,86.05
2022-12-23T18:28:20.495Z,85.99
2022-12-23T18:30:47.435Z,85.93
2022-12-23T18:33:14.018Z,85.79
2022-12-23T18:35:44.075Z,85.61
2022-12-23T18:38:11.386Z,85.49
2022-12-23T18:40:39.250Z,85.34
2022-12-23T18:43:06.702Z,85.20
2022-12-23T18:45:39.037Z,85.26
2022-12-23T18:48:08.233Z,87.58
2022-12-23T18:50:37.934Z,89.24
2022-12-23T18:53:05.876Z,90.28
2022-12-23T18:55:32.859Z,90.81
2022-12-23T18:58:00.128Z,91.20
2022-12-23T19:00:29.723Z,91.70
2022-12-23T19:02:56.464Z,92.11
2022-12-23T19:05:26.118Z,92.54
2022-12-23T19:07:55.426Z,90.98
2022-12-23T19:10:27.717Z,90.10
2022-12-23T19:12:55.037Z,90.56
2022-12-23T19:15:22.558Z,89.91
2022-12-23T19:17:49.680Z,89.46
2022-12-23T19:20:20.596Z,89.16
2022-12-23T19:22:48.092Z,88.89
2022-12-23T19:25:17.352Z,88.74
2022-12-23T19:27:45.082Z,88.64
2022-12-23T19:30:14.448Z,88.54
2022-12-23T19:32:40.976Z,88.27
2022-12-23T19:35:11.295Z,88.26
2022-12-23T19:37:37.850Z,88.14
2022-12-23T19:40:05.750Z,88.08
2022-12-23T19:42:33.978Z,88.01
2022-12-23T19:45:04.426Z,87.89
2022-12-23T19:47:31.740Z,87.62
2022-12-23T19:49:58.708Z,87.32
2022-12-23T19:52:25.630Z,87.23
2022-12-23T19:54:53.607Z,86.99
2022-12-23T19:57:20.876Z,87.10
2022-12-23T19:59:47.435Z,86.81
2022-12-23T20:02:15.591Z,86.94
2022-12-23T20:04:42.525Z,86.70
2022-12-23T20:07:09.863Z,86.94
2022-12-23T20:09:36.814Z,87.77
2022-12-23T20:12:03.582Z,88.12
2022-12-23T20:14:34.162Z,88.44
2022-12-23T20:17:01.259Z,87.62
2022-12-23T20:19:27.979Z,87.56
2022-12-23T20:21:54.584Z,87.61
2022-12-23T20:24:21.316Z,88.81
2022-12-23T20:26:48.278Z,88.64
2022-12-23T20:29:14.917Z,88.10
2022-12-23T20:31:41.735Z,87.99
2022-12-23T20:34:13.747Z,88.45
2022-12-23T20:36:40.513Z,88.37
2022-12-23T20:39:07.120Z,88.21
2022-12-23T20:41:34.211Z,87.95
2022-12-23T20:46:47.769Z,87.93
2022-12-23T20:49:14.359Z,87.75
2022-12-23T20:51:40.925Z,87.64
2022-12-23T20:54:07.645Z,87.22
2022-12-23T20:56:34.255Z,87.33
2022-12-23T20:59:01.840Z,87.45
2022-12-23T21:01:34.653Z,87.29
2022-12-23T21:04:04.655Z,87.27
2022-12-23T21:06:33.250Z,87.12
2022-12-23T21:09:00.329Z,86.96
2022-12-23T21:11:31.706Z,87.09
2022-12-23T21:14:06.344Z,87.03
2022-12-23T21:16:35.410Z,87.16
2022-12-23T21:19:03.626Z,87.64
2022-12-23T21:21:32.016Z,88.89
2022-12-23T21:24:01.481Z,88.95
2022-12-23T21:26:30.802Z,88.54
2022-12-23T21:28:59.526Z,88.19
2022-12-23T21:31:28.297Z,87.84
2022-12-23T21:33:55.318Z,88.08
2022-12-23T21:36:24.913Z,87.87
2022-12-23T21:38:52.178Z,88.55
2022-12-23T21:41:21.332Z,88.22
2022-12-23T21:43:48.824Z,88.43
2022-12-23T21:46:18.393Z,89.14
2022-12-23T21:48:45.791Z,90.55
2022-12-23T21:51:20.017Z,89.74
2022-12-23T21:53:48.539Z,89.04
2022-12-23T21:56:20.346Z,88.88
2022-12-23T21:58:47.205Z,88.81
2022-12-23T22:01:17.325Z,88.82
2022-12-23T22:03:46.975Z,88.66
2022-12-23T22:06:16.543Z,88.75
2022-12-23T22:08:43.483Z,88.64
2022-12-23T22:11:13.811Z,88.54
2022-12-23T22:13:40.932Z,88.65
2022-12-23T22:16:10.495Z,88.73
2022-12-23T22:18:38.256Z,90.65
2022-12-23T22:21:08.411Z,90.83
2022-12-23T22:23:35.875Z,90.76
2022-12-23T22:26:02.833Z,90.93
2022-12-23T22:28:31.942Z,90.43
2022-12-23T22:31:13.472Z,89.88
2022-12-23T22:33:40.179Z,89.68
2022-12-23T22:36:09.480Z,89.69
2022-12-23T22:38:35.980Z,89.96
2022-12-23T22:41:02.755Z,89.86
2022-12-23T22:43:29.292Z,90.93
2022-12-23T22:45:57.761Z,93.81
2022-12-23T22:48:25.628Z,92.09
2022-12-23T22:51:01.112Z,91.39
2022-12-23T22:53:29.959Z,91.72
2022-12-23T22:55:58.737Z,90.91
2022-12-23T22:58:26.485Z,90.93
2022-12-23T23:00:53.233Z,92.92
2022-12-23T23:03:19.887Z,94.72
2022-12-23T23:06:04.467Z,93.56
2022-12-23T23:08:31.073Z,95.82
2022-12-23T23:10:58.947Z,95.14
2022-12-23T23:13:28.933Z,94.03
2022-12-23T23:15:55.906Z,93.62
2022-12-23T23:18:23.301Z,95.14
2022-12-23T23:20:50.603Z,93.81
2022-12-23T23:23:17.979Z,94.02
2022-12-23T23:25:44.998Z,95.49
2022-12-23T23:28:12.398Z,94.63
2022-12-23T23:30:39.520Z,94.27
2022-12-23T23:33:07.389Z,93.98
2022-12-23T23:35:34.881Z,93.70
2022-12-23T23:38:01.678Z,93.28
2022-12-23T23:40:28.221Z,93.36
2022-12-23T23:42:54.785Z,92.94
2022-12-23T23:45:21.294Z,92.85
2022-12-23T23:47:47.764Z,93.00
2022-12-23T23:50:14.627Z,92.76
2022-12-23T23:52:41.065Z,92.49
2022-12-23T23:55:08.403Z,92.42
2022-12-23T23:57:34.965Z,93.17
